Rotterdam Express — DMRX — position and weather

sailwx.info

Track history (hours):
 
Tides and Currents Weather Stations Pressure Air Temp Water Temp Dewpoint Dewpoint Depression Visibility Wind Speed Wind Dir Waves Ship Positions

Rotterdam Express

Last reported at 2014-Nov-25 18:00 UTC. Time now 2014-Nov-25 23:15 UTC.
Position N 42°36' W 028°36'.

Length 294 m; beam 32.2 m; draft 13.6 m.

Type: Ship. MMSI: 211335760.

Wind from 320 at 40 knots

Barometer 1025.0 mb
Air temperature 11.5 ° C
Visibility: greater than 10.8 NM
Dewpoint 1.9 ° C
Water temperature 16.0 ° C

Date/timePositionNaut miles runAvg speedWind from/ knotsBaromVisibWave heightAir tempDewpointWater temp
2014-Nov-25 18:00N 42°36' W 028°36'3712.4 320 / 401025.010.8 11.5 1.916.0
2014-Nov-25 15:00N 42°48' W 027°48'14416.0 320 / 431021.0 5.4 5.013.0 7.416.0
2014-Nov-25 06:00N 43°48' W 024°48'6421.2 210 / 281020.010.8 13.5 7.915.0
2014-Nov-25 03:00N 44°18' W 023°30'13615.1 210 / 251023.5 5.4 12.9 7.516.0
2014-Nov-24 18:00N 45°24' W 020°42'20116.8 1028.010.8 13.1 5.014.0
2014-Nov-24 06:00N 46°48' W 016°18'19916.5 280 / 131022.510.8 11.6 9.014.0
2014-Nov-23 18:00N 48°06' W 011°48'19816.5 1023.510.8 12.0 1.215.0
2014-Nov-23 06:00N 49°12' W 007°06'17216.3 300 / 111019.010.8 10.8 6.314.0
2014-Nov-22 19:24N 50°01' W 002°51'8915.1
2014-Nov-22 13:31N 49°43' W 000°35'1717.6
2014-Nov-22 12:34N 49°33' W 000°15'1414.4
2014-Nov-22 11:33N 49°29' E 000°06'2 1.8
2014-Nov-22 10:32N 49°28' E 000°09'0 0.0
2014-Nov-22 09:31N 49°28' E 000°09'0 0.0
2014-Nov-22 08:32N 49°28' E 000°09'0 0.0
2014-Nov-22 07:32N 49°28' E 000°09'0 0.0
2014-Nov-22 06:33N 49°28' E 000°09'0 0.0
2014-Nov-22 05:32N 49°28' E 000°09'0 0.0
2014-Nov-22 04:32N 49°28' E 000°09'0 0.0
2014-Nov-22 03:33N 49°28' E 000°09'0 0.0
2014-Nov-22 02:32N 49°28' E 000°09'0 0.0
2014-Nov-22 01:32N 49°28' E 000°09'0 0.0
2014-Nov-22 00:32N 49°28' E 000°09'0 0.0
2014-Nov-21 23:32N 49°28' E 000°09'0 0.0
2014-Nov-21 22:32N 49°28' E 000°09'0 0.0
2014-Nov-21 21:31N 49°28' E 000°09'0 0.0
2014-Nov-21 20:31N 49°28' E 000°09'0 0.0
2014-Nov-21 19:30N 49°28' E 000°09'4 3.8
2014-Nov-21 18:33N 49°29' E 000°04'1110.7
2014-Nov-21 17:33N 49°34' W 000°11'1514.9
2014-Nov-21 16:33N 49°49' W 000°11'3417.0
2014-Nov-21 14:33N 50°23' W 000°05'1715.3
2014-Nov-21 13:25N 50°32' E 000°18'1416.8
2014-Nov-21 12:33N 50°37' E 000°39'1716.6
2014-Nov-21 11:33N 50°47' E 001°01'2115.7
2014-Nov-21 10:13N 51°01' E 001°26'914.3
2014-Nov-21 09:33N 51°08' E 001°36'1515.3
2014-Nov-21 08:34N 51°19' E 001°52'1717.0
2014-Nov-21 07:34N 51°33' E 002°08'3517.2
2014-Nov-21 05:33N 51°60' E 002°44'1716.9
2014-Nov-21 04:33N 52°13' E 003°00'1916.9
2014-Nov-21 03:25N 52°29' E 003°18'1416.4
2014-Nov-21 02:33N 52°40' E 003°32'1616.2
2014-Nov-21 01:33N 52°52' E 003°51'1616.1
2014-Nov-21 00:33N 53°03' E 004°09'1615.8
2014-Nov-20 23:34N 53°15' E 004°27'1616.0
2014-Nov-20 22:33N 53°29' E 004°41'1717.1
2014-Nov-20 21:33N 53°36' E 005°07'1717.0
2014-Nov-20 20:33N 53°41' E 005°34'1716.6
2014-Nov-20 19:33N 53°46' E 006°01'4916.2
2014-Nov-20 16:34N 54°02' E 007°19'6 5.9
2014-Nov-20 15:33N 54°01' E 007°29'1615.6
2014-Nov-20 14:33N 53°52' E 007°51'1413.9
2014-Nov-20 13:33N 53°46' E 008°11'1515.2
2014-Nov-20 12:34N 53°36' E 008°31'1 0.9
2014-Nov-20 11:33N 53°35' E 008°32'0 0.0
2014-Nov-20 10:32N 53°35' E 008°32'0 0.0
2014-Nov-20 09:32N 53°35' E 008°32'0 0.0
2014-Nov-20 08:32N 53°35' E 008°32'0 0.0
2014-Nov-20 07:32N 53°35' E 008°32'0 0.0
2014-Nov-20 06:32N 53°35' E 008°32'0 0.0
2014-Nov-20 05:32N 53°35' E 008°32'0 0.0
2014-Nov-20 04:32N 53°35' E 008°32'0 0.0
2014-Nov-20 03:32N 53°35' E 008°32'0 0.0
2014-Nov-20 02:32N 53°35' E 008°32'0 0.0
2014-Nov-20 01:32N 53°35' E 008°32'0 0.0
2014-Nov-20 00:32N 53°35' E 008°32'0 0.0
2014-Nov-19 23:32N 53°35' E 008°32'0 0.0
2014-Nov-19 22:32N 53°35' E 008°32'0 0.0
2014-Nov-19 21:32N 53°35' E 008°32'0 0.0
2014-Nov-19 20:32N 53°35' E 008°32'0 0.0
2014-Nov-19 19:32N 53°35' E 008°32'0 0.0
2014-Nov-19 18:32N 53°35' E 008°32'0 0.0
2014-Nov-19 17:32N 53°35' E 008°32'0 0.0
2014-Nov-19 16:32N 53°35' E 008°32'0 0.0
2014-Nov-19 15:32N 53°35' E 008°32'0 0.0
2014-Nov-19 14:32N 53°35' E 008°32'0 0.0
2014-Nov-19 13:32N 53°35' E 008°32'3 3.2
2014-Nov-19 12:33N 53°37' E 008°28'1514.5
2014-Nov-19 11:33N 53°47' E 008°09'1414.0
2014-Nov-19 10:33N 53°52' E 007°48'5512.5
2014-Nov-19 06:10N 53°44' E 006°16'813.5
2014-Nov-19 05:32N 53°41' E 006°02'1413.9
2014-Nov-19 04:33N 53°36' E 005°41'1514.7
2014-Nov-19 03:33N 53°31' E 005°17'1615.8
2014-Nov-19 02:33N 53°26' E 004°52'1515.3
2014-Nov-19 01:33N 53°15' E 004°36'3515.8
2014-Nov-18 23:19N 52°44' E 004°05'1215.3
2014-Nov-18 22:33N 52°35' E 003°53'4213.7
2014-Nov-18 19:28N 51°57' E 003°22'1213.0
2014-Nov-18 18:33N 51°47' E 003°14'1312.4
2014-Nov-18 17:33N 51°34' E 003°09'1110.7
2014-Nov-18 16:33N 51°24' E 003°05'1817.7
2014-Nov-18 15:33N 51°26' E 003°33'1212.2
2014-Nov-18 14:33N 51°21' E 003°51'1110.7
2014-Nov-18 13:33N 51°22' E 004°08'6 5.8
2014-Nov-18 12:33N 51°20' E 004°17'0 0.0
2014-Nov-18 11:33N 51°20' E 004°17'0 0.0
2014-Nov-18 10:33N 51°20' E 004°17'0 0.0
2014-Nov-18 09:33N 51°20' E 004°17'0 0.0
2014-Nov-18 08:33N 51°20' E 004°17'0 0.0
2014-Nov-18 07:34N 51°20' E 004°17'0 0.0
2014-Nov-18 06:33N 51°20' E 004°17'0 0.0
2014-Nov-18 05:33N 51°20' E 004°17'0 0.0
2014-Nov-18 04:33N 51°20' E 004°17'0 0.0
2014-Nov-18 03:33N 51°20' E 004°17'0 0.0
2014-Nov-18 02:34N 51°20' E 004°17'0 0.0
2014-Nov-18 01:33N 51°20' E 004°17'0 0.0
2014-Nov-18 00:34N 51°20' E 004°17'0 0.0
2014-Nov-17 23:33N 51°20' E 004°17'0 0.0
2014-Nov-17 22:34N 51°20' E 004°17'0 0.0
2014-Nov-17 21:31N 51°20' E 004°17'0 0.0
2014-Nov-17 20:34N 51°20' E 004°17'0 0.0
2014-Nov-17 19:33N 51°20' E 004°17'0 0.0
2014-Nov-17 18:33N 51°20' E 004°17'0 0.0
2014-Nov-17 17:33N 51°20' E 004°17'0 0.0
2014-Nov-17 16:33N 51°20' E 004°17'0 0.0
2014-Nov-17 15:33N 51°20' E 004°17'0 0.0
2014-Nov-17 14:33N 51°20' E 004°17'0 0.0
2014-Nov-17 13:33N 51°20' E 004°17'0 0.0
2014-Nov-17 12:34N 51°20' E 004°17'3 2.8
2014-Nov-17 11:33N 51°22' E 004°13'1010.0
2014-Nov-17 10:34N 51°26' E 003°58'1010.2
2014-Nov-17 09:34N 51°25' E 003°42'1111.3
2014-Nov-17 08:33N 51°25' E 003°24'1814.4
2014-Nov-17 07:19N 51°22' E 002°56'1013.5
2014-Nov-17 06:33N 51°22' E 002°39'9 8.0
2014-Nov-17 05:29N 51°21' E 002°26'1010.3
2014-Nov-17 04:34N 51°16' E 002°12'1313.2
2014-Nov-17 03:34N 51°10' E 001°54'1312.7
2014-Nov-17 02:34N 51°01' E 001°39'1211.7
2014-Nov-17 01:33N 50°52' E 001°27'4510.9
2014-Nov-16 21:28N 50°24' E 000°32'4611.3
2014-Nov-16 17:26N 50°22' W 000°40'1112.8
2014-Nov-16 16:33N 50°30' W 000°52'5 4.6
2014-Nov-16 15:34N 50°34' W 000°57'2 1.7
2014-Nov-16 14:33N 50°33' W 000°59'2 1.6
2014-Nov-16 13:33N 50°32' W 001°01'1 1.1
2014-Nov-16 12:33N 50°31' W 001°02'1 0.7
2014-Nov-16 11:33N 50°30' W 001°02'7 1.3
2014-Nov-16 06:32N 50°29' W 000°52'1111.5
2014-Nov-16 05:33N 50°39' W 000°57'1111.3
2014-Nov-16 04:33N 50°46' W 001°12'9 8.6
2014-Nov-16 03:33N 50°52' W 001°21'5 4.7
2014-Nov-16 02:33N 50°54' W 001°27'0 0.1
2014-Nov-16 01:33N 50°54' W 001°28'0 0.0
2014-Nov-16 00:33N 50°54' W 001°28'0 0.0
2014-Nov-15 23:33N 50°54' W 001°28'0 0.0
2014-Nov-15 22:33N 50°54' W 001°28'0 0.0
2014-Nov-15 21:33N 50°54' W 001°28'0 0.0
2014-Nov-15 20:33N 50°54' W 001°28'0 0.0
2014-Nov-15 19:33N 50°54' W 001°28'0 0.0
2014-Nov-15 18:33N 50°54' W 001°28'  
Track history (hours):
 
Tides and Currents Weather Stations Pressure Air Temp Water Temp Dewpoint Dewpoint Depression Visibility Wind Speed Wind Dir Waves Ship Positions

Rotterdam Express

Last reported at 2014-Nov-25 18:00 UTC. Time now 2014-Nov-25 23:15 UTC.
Position N 42°36' W 028°36'.

Length 294 m; beam 32.2 m; draft 13.6 m.

Type: Ship. MMSI: 211335760.

Wind from 320 at 40 knots

Barometer 1025.0 mb
Air temperature 11.5 ° C
Visibility: greater than 10.8 NM
Dewpoint 1.9 ° C
Water temperature 16.0 ° C

Date/timePositionNaut miles runAvg speedWind from/ knotsBaromVisibWave heightAir tempDewpointWater temp
2014-Nov-25 18:00N 42°36' W 028°36'3712.4 320 / 401025.010.8 11.5 1.916.0
2014-Nov-25 15:00N 42°48' W 027°48'14416.0 320 / 431021.0 5.4 5.013.0 7.416.0
2014-Nov-25 06:00N 43°48' W 024°48'6421.2 210 / 281020.010.8 13.5 7.915.0
2014-Nov-25 03:00N 44°18' W 023°30'13615.1 210 / 251023.5 5.4 12.9 7.516.0
2014-Nov-24 18:00N 45°24' W 020°42'20116.8 1028.010.8 13.1 5.014.0
2014-Nov-24 06:00N 46°48' W 016°18'19916.5 280 / 131022.510.8 11.6 9.014.0
2014-Nov-23 18:00N 48°06' W 011°48'19816.5 1023.510.8 12.0 1.215.0
2014-Nov-23 06:00N 49°12' W 007°06'17216.3 300 / 111019.010.8 10.8 6.314.0
2014-Nov-22 19:24N 50°01' W 002°51'8915.1
2014-Nov-22 13:31N 49°43' W 000°35'1717.6
2014-Nov-22 12:34N 49°33' W 000°15'1414.4
2014-Nov-22 11:33N 49°29' E 000°06'2 1.8
2014-Nov-22 10:32N 49°28' E 000°09'0 0.0
2014-Nov-22 09:31N 49°28' E 000°09'0 0.0
2014-Nov-22 08:32N 49°28' E 000°09'0 0.0
2014-Nov-22 07:32N 49°28' E 000°09'0 0.0
2014-Nov-22 06:33N 49°28' E 000°09'0 0.0
2014-Nov-22 05:32N 49°28' E 000°09'0 0.0
2014-Nov-22 04:32N 49°28' E 000°09'0 0.0
2014-Nov-22 03:33N 49°28' E 000°09'0 0.0
2014-Nov-22 02:32N 49°28' E 000°09'0 0.0
2014-Nov-22 01:32N 49°28' E 000°09'0 0.0
2014-Nov-22 00:32N 49°28' E 000°09'0 0.0
2014-Nov-21 23:32N 49°28' E 000°09'0 0.0
2014-Nov-21 22:32N 49°28' E 000°09'0 0.0
2014-Nov-21 21:31N 49°28' E 000°09'0 0.0
2014-Nov-21 20:31N 49°28' E 000°09'0 0.0
2014-Nov-21 19:30N 49°28' E 000°09'4 3.8
2014-Nov-21 18:33N 49°29' E 000°04'1110.7
2014-Nov-21 17:33N 49°34' W 000°11'1514.9
2014-Nov-21 16:33N 49°49' W 000°11'3417.0
2014-Nov-21 14:33N 50°23' W 000°05'1715.3
2014-Nov-21 13:25N 50°32' E 000°18'1416.8
2014-Nov-21 12:33N 50°37' E 000°39'1716.6
2014-Nov-21 11:33N 50°47' E 001°01'2115.7
2014-Nov-21 10:13N 51°01' E 001°26'914.3
2014-Nov-21 09:33N 51°08' E 001°36'1515.3
2014-Nov-21 08:34N 51°19' E 001°52'1717.0
2014-Nov-21 07:34N 51°33' E 002°08'3517.2
2014-Nov-21 05:33N 51°60' E 002°44'1716.9
2014-Nov-21 04:33N 52°13' E 003°00'1916.9
2014-Nov-21 03:25N 52°29' E 003°18'1416.4
2014-Nov-21 02:33N 52°40' E 003°32'1616.2
2014-Nov-21 01:33N 52°52' E 003°51'1616.1
2014-Nov-21 00:33N 53°03' E 004°09'1615.8
2014-Nov-20 23:34N 53°15' E 004°27'1616.0
2014-Nov-20 22:33N 53°29' E 004°41'1717.1
2014-Nov-20 21:33N 53°36' E 005°07'1717.0
2014-Nov-20 20:33N 53°41' E 005°34'1716.6
2014-Nov-20 19:33N 53°46' E 006°01'4916.2
2014-Nov-20 16:34N 54°02' E 007°19'6 5.9
2014-Nov-20 15:33N 54°01' E 007°29'1615.6
2014-Nov-20 14:33N 53°52' E 007°51'1413.9
2014-Nov-20 13:33N 53°46' E 008°11'1515.2
2014-Nov-20 12:34N 53°36' E 008°31'1 0.9
2014-Nov-20 11:33N 53°35' E 008°32'0 0.0
2014-Nov-20 10:32N 53°35' E 008°32'0 0.0
2014-Nov-20 09:32N 53°35' E 008°32'0 0.0
2014-Nov-20 08:32N 53°35' E 008°32'0 0.0
2014-Nov-20 07:32N 53°35' E 008°32'0 0.0
2014-Nov-20 06:32N 53°35' E 008°32'0 0.0
2014-Nov-20 05:32N 53°35' E 008°32'0 0.0
2014-Nov-20 04:32N 53°35' E 008°32'0 0.0
2014-Nov-20 03:32N 53°35' E 008°32'0 0.0
2014-Nov-20 02:32N 53°35' E 008°32'0 0.0
2014-Nov-20 01:32N 53°35' E 008°32'0 0.0
2014-Nov-20 00:32N 53°35' E 008°32'0 0.0
2014-Nov-19 23:32N 53°35' E 008°32'0 0.0
2014-Nov-19 22:32N 53°35' E 008°32'0 0.0
2014-Nov-19 21:32N 53°35' E 008°32'0 0.0
2014-Nov-19 20:32N 53°35' E 008°32'0 0.0
2014-Nov-19 19:32N 53°35' E 008°32'0 0.0
2014-Nov-19 18:32N 53°35' E 008°32'0 0.0
2014-Nov-19 17:32N 53°35' E 008°32'0 0.0
2014-Nov-19 16:32N 53°35' E 008°32'0 0.0
2014-Nov-19 15:32N 53°35' E 008°32'0 0.0
2014-Nov-19 14:32N 53°35' E 008°32'0 0.0
2014-Nov-19 13:32N 53°35' E 008°32'3 3.2
2014-Nov-19 12:33N 53°37' E 008°28'1514.5
2014-Nov-19 11:33N 53°47' E 008°09'1414.0
2014-Nov-19 10:33N 53°52' E 007°48'5512.5
2014-Nov-19 06:10N 53°44' E 006°16'813.5
2014-Nov-19 05:32N 53°41' E 006°02'1413.9
2014-Nov-19 04:33N 53°36' E 005°41'1514.7
2014-Nov-19 03:33N 53°31' E 005°17'1615.8
2014-Nov-19 02:33N 53°26' E 004°52'1515.3
2014-Nov-19 01:33N 53°15' E 004°36'3515.8
2014-Nov-18 23:19N 52°44' E 004°05'1215.3
2014-Nov-18 22:33N 52°35' E 003°53'4213.7
2014-Nov-18 19:28N 51°57' E 003°22'1213.0
2014-Nov-18 18:33N 51°47' E 003°14'1312.4
2014-Nov-18 17:33N 51°34' E 003°09'1110.7
2014-Nov-18 16:33N 51°24' E 003°05'1817.7
2014-Nov-18 15:33N 51°26' E 003°33'1212.2
2014-Nov-18 14:33N 51°21' E 003°51'1110.7
2014-Nov-18 13:33N 51°22' E 004°08'6 5.8
2014-Nov-18 12:33N 51°20' E 004°17'0 0.0
2014-Nov-18 11:33N 51°20' E 004°17'0 0.0
2014-Nov-18 10:33N 51°20' E 004°17'0 0.0
2014-Nov-18 09:33N 51°20' E 004°17'0 0.0
2014-Nov-18 08:33N 51°20' E 004°17'0 0.0
2014-Nov-18 07:34N 51°20' E 004°17'0 0.0
2014-Nov-18 06:33N 51°20' E 004°17'0 0.0
2014-Nov-18 05:33N 51°20' E 004°17'0 0.0
2014-Nov-18 04:33N 51°20' E 004°17'0 0.0
2014-Nov-18 03:33N 51°20' E 004°17'0 0.0
2014-Nov-18 02:34N 51°20' E 004°17'0 0.0
2014-Nov-18 01:33N 51°20' E 004°17'0 0.0
2014-Nov-18 00:34N 51°20' E 004°17'0 0.0
2014-Nov-17 23:33N 51°20' E 004°17'0 0.0
2014-Nov-17 22:34N 51°20' E 004°17'0 0.0
2014-Nov-17 21:31N 51°20' E 004°17'0 0.0
2014-Nov-17 20:34N 51°20' E 004°17'0 0.0
2014-Nov-17 19:33N 51°20' E 004°17'0 0.0
2014-Nov-17 18:33N 51°20' E 004°17'0 0.0
2014-Nov-17 17:33N 51°20' E 004°17'0 0.0
2014-Nov-17 16:33N 51°20' E 004°17'0 0.0
2014-Nov-17 15:33N 51°20' E 004°17'0 0.0
2014-Nov-17 14:33N 51°20' E 004°17'0 0.0
2014-Nov-17 13:33N 51°20' E 004°17'0 0.0
2014-Nov-17 12:34N 51°20' E 004°17'3 2.8
2014-Nov-17 11:33N 51°22' E 004°13'1010.0
2014-Nov-17 10:34N 51°26' E 003°58'1010.2
2014-Nov-17 09:34N 51°25' E 003°42'1111.3
2014-Nov-17 08:33N 51°25' E 003°24'1814.4
2014-Nov-17 07:19N 51°22' E 002°56'1013.5
2014-Nov-17 06:33N 51°22' E 002°39'9 8.0
2014-Nov-17 05:29N 51°21' E 002°26'1010.3
2014-Nov-17 04:34N 51°16' E 002°12'1313.2
2014-Nov-17 03:34N 51°10' E 001°54'1312.7
2014-Nov-17 02:34N 51°01' E 001°39'1211.7
2014-Nov-17 01:33N 50°52' E 001°27'4510.9
2014-Nov-16 21:28N 50°24' E 000°32'4611.3
2014-Nov-16 17:26N 50°22' W 000°40'1112.8
2014-Nov-16 16:33N 50°30' W 000°52'5 4.6
2014-Nov-16 15:34N 50°34' W 000°57'2 1.7
2014-Nov-16 14:33N 50°33' W 000°59'2 1.6
2014-Nov-16 13:33N 50°32' W 001°01'1 1.1
2014-Nov-16 12:33N 50°31' W 001°02'1 0.7
2014-Nov-16 11:33N 50°30' W 001°02'7 1.3
2014-Nov-16 06:32N 50°29' W 000°52'1111.5
2014-Nov-16 05:33N 50°39' W 000°57'1111.3
2014-Nov-16 04:33N 50°46' W 001°12'9 8.6
2014-Nov-16 03:33N 50°52' W 001°21'5 4.7
2014-Nov-16 02:33N 50°54' W 001°27'0 0.1
2014-Nov-16 01:33N 50°54' W 001°28'0 0.0
2014-Nov-16 00:33N 50°54' W 001°28'0 0.0
2014-Nov-15 23:33N 50°54' W 001°28'0 0.0
2014-Nov-15 22:33N 50°54' W 001°28'0 0.0
2014-Nov-15 21:33N 50°54' W 001°28'0 0.0
2014-Nov-15 20:33N 50°54' W 001°28'0 0.0
2014-Nov-15 19:33N 50°54' W 001°28'0 0.0
2014-Nov-15 18:33N 50°54' W 001°28'  

Dump ship's entire track history